Latest Weather Observations for Adelaide Airport

IDS60801

Issued at 5:35 pm CST Wednesday 23 April 2014 (issued every 30 minutes, with the page automatically refreshed every 10 minutes)

About weather observations | Map of weather stations | Latest weather observations for SA | Other Formats
Station Details ID: 023034 Name: ADELAIDE AIRPORT Lat: -34.95 Lon: 138.52 Height: 2.0 m
Data from the previous 72 hours. | See also: Recent months at Adelaide Airport
Date/Time
CST
Temp
°C
App
Temp
°C
Dew
Point
Rel
Hum
%
Delta-T
°C
Wind Press
QNH
hPa
Press
MSL
hPa
Rain
since 9 am
mm
Dir
 
Spd
km/h
Gust
km/h
Spd
kts
Gust
kts
23/05:30pm 17.8 15.6 7.7 51 5.1 NNW 9 11 5 6 1014.4 - 0.0
23/05:00pm 19.2 17.2 6.9 44 6.2 NNW 7 11 4 6 1014.3 - 0.0
23/04:30pm 19.3 17.2 6.7 44 6.3 NW 7 11 4 6 1014.5 - 0.0
23/04:00pm 20.0 18.7 5.9 39 7.0 WNW 2 9 1 5 1014.3 - 0.0
23/03:30pm 20.0 17.7 5.0 37 7.3 WSW 6 11 3 6 1014.7 - 0.0
23/03:00pm 19.8 17.5 4.7 37 7.3 WNW 6 11 3 6 1014.8 1014.8 0.0
23/02:30pm 18.7 15.9 6.9 46 5.9 W 11 15 6 8 1015.1 - 0.0
23/02:00pm 18.5 16.0 8.2 51 5.3 W 11 15 6 8 1015.2 - 0.0
23/01:30pm 18.1 15.2 8.1 52 5.1 W 13 19 7 10 1015.6 - 0.0
23/01:00pm 18.6 16.1 8.3 51 5.3 W 11 15 6 8 1016.2 - 0.0
23/12:30pm 18.5 15.7 8.6 52 5.1 WSW 13 19 7 10 1016.8 - 0.0
23/12:00pm 18.6 15.9 8.8 53 5.1 WSW 13 17 7 9 1017.3 1017.3 0.0
23/11:30am 17.8 14.5 8.2 53 4.9 W 15 19 8 10 1017.7 - 0.0
23/11:00am 18.1 16.4 7.4 49 5.4 W 6 13 3 7 1018.0 - 0.0
23/10:30am 18.1 15.7 6.9 48 5.6 N 9 13 5 7 1018.2 - 0.0
23/10:00am 17.2 14.7 6.7 50 5.2 N 9 13 5 7 1018.4 - 0.0
23/09:30am 16.2 13.9 7.6 56 4.3 NE 9 15 5 8 1018.5 - 0.0
23/09:00am 14.5 13.7 8.1 65 3.2 NNE 2 9 1 5 1018.7 1018.7 0.0
23/08:30am 12.0 10.1 7.7 75 2.1 NE 7 7 4 4 1018.5 - 0.0
23/08:00am 11.3 9.5 8.0 80 1.6 NE 7 9 4 5 1018.2 - 0.0
23/07:30am 9.7 7.9 7.2 84 1.2 E 6 7 3 4 1018.0 - 0.0
23/07:00am 8.1 6.0 6.6 90 0.7 E 7 7 4 4 1018.0 - 0.0
23/06:30am 7.9 7.1 6.6 91 0.6 CALM 0 0 0 0 1017.8 - 0.0
23/06:00am 8.2 5.6 6.2 87 0.9 NE 9 9 5 5 1017.6 1017.6 0.0
23/05:30am 7.8 5.1 5.6 86 1.0 NE 9 11 5 6 1017.5 - 0.0
23/05:00am 7.9 5.7 6.1 88 0.8 NE 7 9 4 5 1017.7 - 0.0
23/04:30am 7.7 5.1 5.9 88 0.8 ENE 9 11 5 6 1017.6 - 0.0
23/04:00am 7.7 4.7 6.2 90 0.7 ENE 11 11 6 6 1017.6 - 0.0
23/03:30am 8.4 6.4 6.9 90 0.7 NE 7 9 4 5 1017.6 - 0.0
23/03:00am 8.5 6.6 6.8 89 0.8 NE 6 7 3 4 1017.7 1017.7 0.0
23/02:30am 9.1 7.2 6.7 85 1.1 NE 6 9 3 5 1017.9 - 0.0
23/02:00am 8.5 6.9 6.5 87 0.9 ESE 4 7 2 4 1018.0 - 0.0
23/01:30am 10.2 9.7 7.7 84 1.2 CALM 0 0 0 0 1018.3 - 0.0
23/01:00am 8.9 7.2 7.4 90 0.7 NNE 6 7 3 4 1018.4 - 0.0
23/12:30am 10.6 10.1 7.9 83 1.3 CALM 0 0 0 0 1018.6 - 0.0
23/12:00am 10.8 9.9 7.7 81 1.5 SE 2 6 1 3 1018.6 1018.6 0.0
 
Date/Time
CST
Temp
°C
App
Temp
°C
Dew
Point
Rel
Hum
%
Delta-T
°C
Wind Press
QNH
hPa
Press
MSL
hPa
Rain
since 9 am
mm
Dir
 
Spd
km/h
Gust
km/h
Spd
kts
Gust
kts
22/11:30pm 11.9 10.2 8.5 80 1.7 SSW 7 7 4 4 1018.8 - 0.0
22/11:00pm 12.1 11.6 8.0 76 2.0 CALM 0 0 0 0 1019.1 - 0.0
22/10:30pm 13.0 12.5 7.7 70 2.6 CALM 0 0 0 0 1019.0 - 0.0
22/10:00pm 14.1 12.3 8.1 67 3.0 SE 7 7 4 4 1019.0 - 0.0
22/09:30pm 13.5 10.9 7.8 68 2.8 SSE 11 13 6 7 1018.9 - 0.0
22/09:00pm 14.5 11.7 6.9 60 3.7 S 11 15 6 8 1019.2 1019.2 0.0
22/08:30pm 15.2 12.2 6.0 54 4.4 S 11 15 6 8 1019.0 - 0.0
22/08:00pm 15.5 13.0 6.4 54 4.4 SSE 9 13 5 7 1018.9 - 0.0
22/07:30pm 15.3 12.2 7.4 59 3.9 S 13 15 7 8 1018.8 - 0.0
22/07:00pm 16.0 12.4 6.8 54 4.5 SSE 15 22 8 12 1018.7 - 0.0
22/06:30pm 16.2 12.1 6.3 52 4.8 SSE 17 26 9 14 1018.3 - 0.0
22/06:00pm 16.8 12.6 5.6 47 5.4 S 17 22 9 12 1018.0 1018.0 0.0
22/05:30pm 17.4 12.1 6.9 50 5.2 SSW 24 32 13 17 1017.7 - 0.0
22/05:00pm 17.8 12.6 8.9 56 4.6 SW 26 37 14 20 1017.4 - 0.0
22/04:30pm 18.0 13.3 9.2 56 4.6 SSW 24 37 13 20 1017.2 - 0.0
22/04:00pm 18.5 13.0 9.3 55 4.8 SW 28 35 15 19 1017.0 - 0.0
22/03:30pm 19.2 13.6 8.6 50 5.5 SW 28 35 15 19 1017.1 - 0.0
22/03:00pm 19.1 13.2 9.0 52 5.3 SW 30 37 16 20 1017.0 1017.0 0.0
22/02:30pm 19.7 14.2 9.3 51 5.5 SW 28 35 15 19 1016.8 - 0.0
22/02:00pm 19.3 13.5 9.5 53 5.2 SW 30 35 16 19 1016.8 - 0.0
22/01:30pm 20.1 14.7 9.6 51 5.6 SW 28 35 15 19 1016.8 - 0.0
22/01:00pm 19.4 13.8 8.9 50 5.5 SW 28 33 15 18 1016.9 - 0.0
22/12:30pm 19.5 14.2 9.7 53 5.2 SW 28 33 15 18 1017.1 - 0.0
22/12:00pm 19.4 14.2 10.3 55 4.9 SW 28 33 15 18 1017.4 1017.4 0.0
22/11:30am 19.0 14.9 10.0 56 4.8 SW 22 30 12 16 1017.5 - 0.0
22/11:00am 19.6 15.2 10.5 55 4.9 SW 24 33 13 18 1017.6 - 0.0
22/10:30am 17.9 14.8 10.4 61 4.0 SSW 17 26 9 14 1017.6 - 0.0
22/10:00am 17.6 14.1 10.3 62 3.9 SSW 19 26 10 14 1017.5 - 0.0
22/09:30am 18.3 15.0 10.9 62 4.0 S 19 26 10 14 1017.3 - 0.0
22/09:00am 18.1 14.9 11.3 64 3.7 S 19 26 10 14 1017.2 1017.2 0.0
22/08:30am 17.1 14.0 11.6 70 3.0 S 19 26 10 14 1016.9 - 0.0
22/08:00am 17.0 14.9 12.5 75 2.5 S 15 19 8 10 1016.5 - 0.0
22/07:30am 16.7 15.2 13.1 79 2.0 S 13 17 7 9 1016.1 - 0.0
22/07:00am 16.9 15.0 13.1 78 2.1 S 15 20 8 11 1015.5 - 0.0
22/06:30am 17.2 15.1 13.5 79 2.1 SSW 17 26 9 14 1014.9 - 0.0
22/06:00am 17.3 15.7 14.0 81 1.9 S 15 26 8 14 1014.4 1014.4 0.0
22/05:30am 17.0 16.3 14.4 85 1.5 S 11 13 6 7 1014.1 - 0.0
22/05:00am 17.7 16.5 15.1 85 1.5 SW 15 19 8 10 1013.6 - 0.0
22/04:30am 17.7 15.5 14.9 84 1.6 S 20 30 11 16 1013.1 - 0.0
22/04:00am 17.2 17.0 15.8 91 0.8 SW 11 15 6 8 1012.8 - 0.0
22/03:30am 18.0 19.0 16.3 90 1.0 S 6 9 3 5 1012.2 - 0.0
22/03:00am 18.6 18.9 16.1 85 1.5 S 9 15 5 8 1012.0 1012.0 0.0
22/02:30am 18.5 18.5 16.3 87 1.3 SSW 11 15 6 8 1012.3 - 0.0
22/02:00am 18.6 17.1 16.4 87 1.3 SW 19 26 10 14 1012.4 - 0.0
22/01:30am 19.3 15.9 15.9 81 2.0 SW 28 41 15 22 1011.9 - 0.0
22/01:00am 19.7 17.4 13.0 65 3.8 ENE 17 20 9 11 1011.1 - 0.0
22/12:30am 20.0 18.4 12.7 63 4.1 ENE 13 19 7 10 1011.8 - 0.0
22/12:00am 18.6 18.1 13.9 74 2.7 E 9 11 5 6 1011.9 1011.9 0.0
 
Date/Time
CST
Temp
°C
App
Temp
°C
Dew
Point
Rel
Hum
%
Delta-T
°C
Wind Press
QNH
hPa
Press
MSL
hPa
Rain
since 9 am
mm
Dir
 
Spd
km/h
Gust
km/h
Spd
kts
Gust
kts
21/11:30pm 19.8 19.6 12.9 64 3.9 SSW 6 9 3 5 1012.2 - 0.0
21/11:00pm 19.9 19.3 13.6 67 3.6 ESE 9 15 5 8 1011.9 - 0.0
21/10:30pm 20.7 18.4 14.2 66 3.8 S 19 24 10 13 1012.2 - 0.0
21/10:00pm 21.9 21.2 13.2 57 5.0 WNW 9 13 5 7 1011.8 - 0.0
21/09:30pm 22.3 20.1 13.3 56 5.2 N 17 22 9 12 1011.3 - 0.0
21/09:00pm 23.2 19.3 9.6 42 7.4 N 20 26 11 14 1011.3 1011.3 0.0
21/08:30pm 23.3 20.4 11.1 46 6.8 NNW 17 20 9 11 1011.5 - 0.0
21/08:00pm 23.4 21.3 11.0 45 6.9 WSW 13 19 7 10 1011.3 - 0.0
21/07:30pm 24.1 20.8 8.1 36 8.5 N 15 26 8 14 1011.1 - 0.0
21/07:00pm 25.6 21.5 6.1 28 10.1 N 17 26 9 14 1010.6 - 0.0
21/06:30pm 26.0 20.5 5.8 27 10.4 N 24 33 13 18 1010.5 - 0.0
21/06:00pm 25.9 20.3 7.1 30 9.9 N 26 32 14 17 1010.4 1010.4 0.0
21/05:30pm 26.3 20.8 7.5 30 10.0 N 26 35 14 19 1010.2 - 0.0
21/05:00pm 26.9 20.1 6.8 28 10.6 N 32 39 17 21 1010.0 - 0.0
21/04:30pm 27.3 19.9 6.9 27 10.8 N 35 48 19 26 1010.0 - 0.0
21/04:00pm 27.7 21.0 7.3 27 10.9 N 32 43 17 23 1010.1 - 0.0
21/03:30pm 27.0 20.4 8.4 31 10.1 NNW 33 46 18 25 1010.5 - 0.0
21/03:00pm 26.7 19.6 8.2 31 10.0 N 35 48 19 26 1010.6 1010.6 0.0
21/02:30pm 27.3 19.3 7.5 28 10.6 N 39 52 21 28 1010.7 - 0.0
21/02:00pm 26.7 19.6 7.9 30 10.1 N 35 48 19 26 1010.8 - 0.0
21/01:30pm 26.9 19.4 7.9 30 10.2 N 37 48 20 26 1011.1 - 0.0
21/01:00pm 27.0 19.0 7.5 29 10.4 N 39 52 21 28 1011.5 - 0.0
21/12:47pm 27.0 18.9 7.0 28 10.6 N 39 61 21 33 1011.7 - 0.0
21/12:30pm 26.9 18.5 7.4 29 10.4 N 41 56 22 30 1011.9 - 0.0
21/12:16pm 26.8 19.3 8.0 30 10.1 N 37 56 20 30 1012.1 - 0.0
21/12:00pm 26.1 18.5 7.7 31 9.8 N 37 52 20 28 1012.4 1012.4 0.0
21/11:30am 25.8 17.8 7.5 31 9.7 NNW 39 65 21 35 1012.7 - 0.0
21/11:00am 25.5 19.1 8.4 33 9.2 N 32 50 17 27 1013.2 - 0.0
21/10:50am 25.5 19.7 7.8 32 9.4 N 28 48 15 26 1013.3 - 0.0
21/10:30am 24.6 17.6 6.7 31 9.3 N 33 50 18 27 1013.3 - 0.0
21/10:00am 24.4 17.5 6.6 32 9.2 N 32 41 17 22 1013.6 - 0.0
21/09:30am 23.2 17.5 6.9 35 8.4 N 26 32 14 17 1013.8 - 0.0
21/09:00am 22.9 16.8 6.5 34 8.4 NNE 28 35 15 19 1014.0 1014.0 0.0
21/08:30am 21.6 15.9 6.7 38 7.6 NNE 26 33 14 18 1013.9 - 0.0
21/08:00am 20.9 15.4 6.1 38 7.4 NNE 24 30 13 16 1013.9 - 0.0
21/07:30am 20.3 15.6 6.1 39 7.1 NNE 20 28 11 15 1013.8 - 0.0
21/07:00am 19.7 15.0 6.0 40 6.8 NE 20 30 11 16 1013.5 - 0.0
21/06:30am 19.4 14.7 6.1 42 6.6 NE 20 28 11 15 1013.4 - 0.0
21/06:00am 19.9 15.1 5.5 39 7.1 NE 20 32 11 17 1013.5 1013.5 0.0
21/05:30am 20.0 14.4 5.6 39 7.1 NE 24 30 13 16 1013.3 - 0.0
21/05:00am 19.9 14.3 5.5 39 7.1 NE 24 33 13 18 1013.4 - 0.0
21/04:30am 19.9 14.4 5.7 39 7.0 NE 24 32 13 17 1013.5 - 0.0
21/04:00am 19.8 13.5 5.9 40 6.9 NE 28 33 15 18 1013.6 - 0.0
21/03:30am 19.6 14.9 6.1 41 6.7 NNE 20 26 11 14 1014.1 - 0.0
21/03:00am 19.9 14.8 6.0 40 6.9 NNE 22 30 12 16 1014.1 1014.1 0.0
21/02:30am 19.9 14.5 6.3 41 6.8 NE 24 32 13 17 1014.3 - 0.0
21/02:00am 19.2 14.7 6.9 44 6.2 NE 20 26 11 14 1014.8 - 0.0
21/01:30am 18.6 14.9 7.8 49 5.5 NE 17 22 9 12 1015.2 - 0.0
21/01:00am 18.3 14.1 8.4 52 5.1 NE 20 26 11 14 1015.5 - 0.0
21/12:30am 17.9 13.5 9.1 56 4.6 NE 22 30 12 16 1015.6 - 0.0
21/12:00am 17.3 13.6 9.4 59 4.1 NNE 19 24 10 13 1016.1 1016.1 0.0
 
Date/Time
CST
Temp
°C
App
Temp
°C
Dew
Point
Rel
Hum
%
Delta-T
°C
Wind Press
QNH
hPa
Press
MSL
hPa
Rain
since 9 am
mm
Dir
 
Spd
km/h
Gust
km/h
Spd
kts
Gust
kts
20/11:30pm 15.7 13.1 9.3 65 3.3 NNE 13 15 7 8 1016.4 - 0.0
20/11:00pm 15.8 13.7 9.9 68 3.1 NNE 11 11 6 6 1016.7 - 0.0
20/10:30pm 15.4 14.3 10.7 73 2.5 ENE 7 9 4 5 1017.0 - 0.0
20/10:00pm 14.9 13.1 10.7 76 2.2 NE 11 13 6 7 1017.3 - 0.0
20/09:30pm 15.0 14.3 11.4 79 1.9 E 6 7 3 4 1017.8 - 0.0
20/09:00pm 15.2 14.3 11.5 78 2.0 ESE 7 9 4 5 1017.7 1017.7 0.0
20/08:30pm 15.7 16.3 11.8 77 2.1 CALM 0 0 0 0 1017.8 - 0.0
20/08:00pm 16.0 16.5 11.5 74 2.4 CALM 0 0 0 0 1017.9 - 0.0
20/07:30pm 16.9 16.4 12.0 73 2.7 E 6 6 3 3 1018.0 - 0.0
20/07:00pm 17.4 16.7 11.5 68 3.2 E 6 7 3 4 1017.8 - 0.0
20/06:30pm 18.4 16.9 11.8 65 3.6 SSW 11 13 6 7 1018.0 - 0.0
20/06:00pm 17.9 16.8 11.9 68 3.3 SW 9 11 5 6 1017.7 1017.7 0.0

Other Formats:

Comma delimited format used in spreadsheet applications
http://www.bom.gov.au/fwo/IDS60801/IDS60801.94672.axf

JavaScript Object Notation format (JSON) in row-major order
http://www.bom.gov.au/fwo/IDS60801/IDS60801.94672.json